createdAt,value
2023-03-27T00:00:46.327Z,6.07
2023-03-27T00:03:17.120Z,12.50
2023-03-27T00:05:48.100Z,13.93
2023-03-27T00:08:19.640Z,12.35
2023-03-27T00:10:50.972Z,15.18
2023-03-27T00:13:24.970Z,13.30
2023-03-27T00:15:59.847Z,17.08
2023-03-27T00:18:30.186Z,16.13
2023-03-27T00:20:59.277Z,10.15
2023-03-27T00:23:29.333Z,17.13
2023-03-27T00:26:00.764Z,14.20
2023-03-27T00:28:33.431Z,16.20
2023-03-27T00:31:01.000Z,15.18
2023-03-27T00:33:27.798Z,14.73
2023-03-27T00:35:55.752Z,18.92
2023-03-27T00:38:23.704Z,11.88
2023-03-27T00:41:02.860Z,12.00
2023-03-27T00:43:35.428Z,13.98
2023-03-27T00:46:21.489Z,9.95
2023-03-27T00:48:51.479Z,17.52
2023-03-27T00:51:20.223Z,15.88
2023-03-27T00:53:52.854Z,14.90
2023-03-27T00:56:20.124Z,13.63
2023-03-27T00:58:52.641Z,16.77
2023-03-27T01:01:24.602Z,15.43
2023-03-27T01:03:56.177Z,15.20
2023-03-27T01:06:29.259Z,13.35
2023-03-27T01:08:59.251Z,13.88
2023-03-27T01:12:00.423Z,9.55
2023-03-27T01:15:10.722Z,11.75
2023-03-27T01:18:04.904Z,9.75
2023-03-27T01:21:28.080Z,13.15
2023-03-27T01:36:37.559Z,16.38
2023-03-27T01:39:37.913Z,10.60
2023-03-27T01:42:37.434Z,9.10
2023-03-27T01:45:13.943Z,9.65
2023-03-27T01:47:55.553Z,5.32
2023-03-27T01:50:58.759Z,9.38
2023-03-27T01:53:43.952Z,8.85
2023-03-27T01:56:34.154Z,6.75
2023-03-27T01:59:35.972Z,7.22
2023-03-27T02:05:24.230Z,10.02
2023-03-27T02:08:07.684Z,9.52
2023-03-27T02:10:42.021Z,8.63
2023-03-27T02:13:49.074Z,7.57
2023-03-27T02:16:27.416Z,9.55
2023-03-27T02:19:10.095Z,7.47
2023-03-27T02:22:04.300Z,7.13
2023-03-27T02:24:33.187Z,11.10
2023-03-27T02:27:26.973Z,13.35
2023-03-27T02:30:13.697Z,7.47
2023-03-27T02:32:54.673Z,9.85
2023-03-27T02:36:06.589Z,9.52
2023-03-27T02:38:44.096Z,9.82
2023-03-27T02:41:39.550Z,9.80
2023-03-27T02:45:00.163Z,11.50
2023-03-27T02:53:24.585Z,13.02
2023-03-27T02:56:01.181Z,15.32
2023-03-27T02:59:00.570Z,9.50
2023-03-27T03:01:32.860Z,6.55
2023-03-27T03:04:08.153Z,12.27
2023-03-27T03:06:36.170Z,12.75
2023-03-27T03:09:06.813Z,14.73
2023-03-27T03:11:40.777Z,8.32
2023-03-27T03:14:22.371Z,10.82
2023-03-27T03:16:49.487Z,7.40
2023-03-27T03:19:16.805Z,7.47
2023-03-27T03:21:46.784Z,7.00
2023-03-27T03:24:21.499Z,7.63
2023-03-27T03:26:52.246Z,9.40
2023-03-27T03:29:26.330Z,9.85
2023-03-27T03:34:42.430Z,7.22
2023-03-27T03:37:15.991Z,11.38
2023-03-27T03:39:44.512Z,8.55
2023-03-27T03:42:22.744Z,7.65
2023-03-27T03:47:34.409Z,9.20
2023-03-27T03:50:16.492Z,13.90
2023-03-27T03:52:45.880Z,5.78
2023-03-27T03:55:18.676Z,14.18
2023-03-27T03:57:58.604Z,12.50
2023-03-27T04:00:36.512Z,10.55
2023-03-27T04:03:10.289Z,7.80
2023-03-27T04:16:52.371Z,10.88
2023-03-27T04:19:20.784Z,10.23
2023-03-27T04:21:50.368Z,8.57
2023-03-27T04:29:52.293Z,6.40
2023-03-27T04:32:25.143Z,4.85
2023-03-27T04:34:55.879Z,12.25
2023-03-27T04:37:25.707Z,10.15
2023-03-27T04:40:02.925Z,7.97
2023-03-27T04:42:32.339Z,8.30
2023-03-27T04:45:05.015Z,10.88
2023-03-27T04:50:21.614Z,10.13
2023-03-27T04:52:54.217Z,10.90
2023-03-27T04:58:31.623Z,11.88
2023-03-27T05:00:58.865Z,8.98
2023-03-27T05:03:30.324Z,9.27
2023-03-27T05:06:02.739Z,8.50
2023-03-27T05:08:34.869Z,9.93
2023-03-27T05:11:09.359Z,8.40
2023-03-27T05:13:38.901Z,13.75
2023-03-27T05:16:16.044Z,8.32
2023-03-27T05:18:49.306Z,11.73
2023-03-27T05:21:41.198Z,9.50
2023-03-27T05:24:10.348Z,8.13
2023-03-27T05:26:41.676Z,7.13
2023-03-27T05:29:14.605Z,14.95
2023-03-27T05:31:44.298Z,18.15
2023-03-27T05:34:11.917Z,8.90
2023-03-27T05:39:47.328Z,7.63
2023-03-27T05:45:07.703Z,9.63
2023-03-27T05:47:52.070Z,11.77
2023-03-27T05:50:26.976Z,8.60
2023-03-27T05:53:17.428Z,7.72
2023-03-27T05:55:48.058Z,7.40
2023-03-27T06:00:48.712Z,7.40
2023-03-27T06:03:24.486Z,8.93
2023-03-27T06:05:56.316Z,7.47
2023-03-27T06:08:38.756Z,11.35
2023-03-27T06:13:43.683Z,7.40
2023-03-27T06:16:29.344Z,7.80
2023-03-27T06:19:08.028Z,10.13
2023-03-27T06:24:32.891Z,7.45
2023-03-27T06:27:00.606Z,13.65
2023-03-27T06:29:29.949Z,10.55
2023-03-27T06:32:02.732Z,13.82
2023-03-27T06:34:29.837Z,9.00
2023-03-27T06:49:19.901Z,12.50
2023-03-27T06:51:56.689Z,10.02
2023-03-27T06:57:08.032Z,9.55
2023-03-27T06:59:55.169Z,11.63
2023-03-27T07:02:25.608Z,12.82
2023-03-27T07:05:03.718Z,7.43
2023-03-27T07:07:40.312Z,8.70
2023-03-27T07:10:17.087Z,13.95
2023-03-27T07:15:37.511Z,11.43
2023-03-27T07:20:51.629Z,14.00
2023-03-27T07:23:20.146Z,8.27
2023-03-27T07:25:50.454Z,5.82
2023-03-27T07:31:04.000Z,11.27
2023-03-27T07:45:04.649Z,10.32
2023-03-27T07:47:36.464Z,13.52
2023-03-27T07:55:33.657Z,13.52
2023-03-27T07:58:02.714Z,10.55
2023-03-27T08:00:31.931Z,11.30
2023-03-27T08:03:19.089Z,7.28
2023-03-27T08:06:18.324Z,8.38
2023-03-27T08:08:49.728Z,6.55
2023-03-27T08:11:30.395Z,4.88
2023-03-27T08:14:01.355Z,9.05
2023-03-27T08:16:34.659Z,4.47
2023-03-27T08:24:46.582Z,9.68
2023-03-27T08:27:14.532Z,9.27
2023-03-27T08:29:51.126Z,5.45
2023-03-27T08:32:18.662Z,7.05
2023-03-27T08:34:51.037Z,6.35
2023-03-27T08:37:22.075Z,6.43
2023-03-27T08:39:49.615Z,7.95
2023-03-27T08:42:29.624Z,7.35
2023-03-27T08:45:05.538Z,6.65
2023-03-27T08:50:57.171Z,12.43
2023-03-27T08:54:01.537Z,12.30
2023-03-27T08:56:33.751Z,10.55
2023-03-27T08:59:09.270Z,10.80
2023-03-27T09:01:54.389Z,7.43
2023-03-27T09:04:36.388Z,7.07
2023-03-27T09:07:28.598Z,6.00
2023-03-27T09:10:19.969Z,10.57
2023-03-27T09:12:50.099Z,6.07
2023-03-27T09:21:48.383Z,8.35
2023-03-27T09:24:52.758Z,14.65
2023-03-27T09:33:49.831Z,7.53
2023-03-27T09:36:21.235Z,7.82
2023-03-27T09:39:13.421Z,8.57
2023-03-27T09:44:44.463Z,5.85
2023-03-27T09:50:32.979Z,4.90
2023-03-27T09:53:21.692Z,4.38
2023-03-27T09:56:08.289Z,6.45
2023-03-27T09:59:00.737Z,3.53
2023-03-27T10:04:38.409Z,8.45
2023-03-27T10:07:10.298Z,6.50
2023-03-27T10:15:39.884Z,3.58
2023-03-27T10:27:49.185Z,6.50
2023-03-27T10:39:45.230Z,6.45
2023-03-27T10:51:01.388Z,5.60
2023-03-27T10:53:52.597Z,3.55
2023-03-27T10:56:56.598Z,5.22
2023-03-27T10:59:56.896Z,2.63
2023-03-27T11:05:41.011Z,5.35
2023-03-27T11:08:24.012Z,3.70
2023-03-27T11:11:06.441Z,2.33
2023-03-27T11:16:57.476Z,5.03
2023-03-27T11:20:11.638Z,5.22
2023-03-27T11:26:04.633Z,1.92
2023-03-27T11:36:16.220Z,1.90
2023-03-27T11:38:53.130Z,3.75
2023-03-27T11:44:58.106Z,2.30
2023-03-27T11:48:11.486Z,2.60
2023-03-27T11:51:07.834Z,4.13
2023-03-27T11:53:44.253Z,7.50
2023-03-27T11:59:17.304Z,4.82
2023-03-27T12:02:31.075Z,3.30
2023-03-27T12:05:27.523Z,1.30
2023-03-27T12:15:44.834Z,1.35
2023-03-27T12:18:22.756Z,1.45
2023-03-27T12:24:46.911Z,3.20
2023-03-27T12:28:22.712Z,1.35
2023-03-27T12:34:55.619Z,2.40
2023-03-27T12:50:36.166Z,2.97
2023-03-27T12:53:07.513Z,1.60
2023-03-27T12:58:36.595Z,2.70
2023-03-27T13:07:32.221Z,2.10
2023-03-27T13:14:10.618Z,4.43
2023-03-27T13:26:02.720Z,2.67
2023-03-27T13:32:55.045Z,2.63
2023-03-27T13:41:51.132Z,2.00
2023-03-27T13:44:38.588Z,4.90
2023-03-27T13:47:43.152Z,3.28
2023-03-27T13:50:51.475Z,4.55
2023-03-27T13:53:55.997Z,4.75
2023-03-27T13:57:08.065Z,2.65
2023-03-27T14:03:42.371Z,3.55
2023-03-27T14:07:15.440Z,2.58
2023-03-27T14:10:24.803Z,2.45
2023-03-27T14:13:43.668Z,2.88
2023-03-27T14:16:55.971Z,3.42
2023-03-27T14:19:35.295Z,3.63
2023-03-27T14:22:36.375Z,3.13
2023-03-27T14:25:18.778Z,1.83
2023-03-27T14:28:02.662Z,1.67
2023-03-27T14:31:01.081Z,2.35
2023-03-27T14:36:25.387Z,3.28
2023-03-27T14:51:29.316Z,3.05
2023-03-27T15:05:45.568Z,2.63
2023-03-27T15:08:16.966Z,3.85
2023-03-27T15:10:57.896Z,2.10
2023-03-27T15:13:44.957Z,4.95
2023-03-27T15:19:13.094Z,4.45
2023-03-27T15:22:01.347Z,4.20
2023-03-27T15:25:06.544Z,3.92
2023-03-27T15:28:00.743Z,3.42
2023-03-27T15:30:39.254Z,4.60
2023-03-27T15:33:26.941Z,4.85
2023-03-27T15:36:21.182Z,4.65
2023-03-27T15:39:00.763Z,6.93
2023-03-27T15:47:30.819Z,4.07
2023-03-27T15:50:25.553Z,3.08
2023-03-27T15:55:44.627Z,5.40
2023-03-27T15:58:43.519Z,1.48
2023-03-27T16:01:21.143Z,1.45
2023-03-27T16:03:58.541Z,3.85
2023-03-27T16:06:41.106Z,1.98
2023-03-27T16:09:31.312Z,1.33
2023-03-27T16:12:01.706Z,3.25
2023-03-27T16:14:46.858Z,1.70
2023-03-27T16:17:23.055Z,2.67
2023-03-27T16:19:59.862Z,3.75
2023-03-27T16:22:40.743Z,6.47
2023-03-27T16:28:08.972Z,1.15
2023-03-27T16:31:04.377Z,1.25
2023-03-27T16:33:38.927Z,1.77
2023-03-27T16:36:42.008Z,2.53
2023-03-27T16:44:51.327Z,2.42
2023-03-27T16:55:55.426Z,1.33
2023-03-27T16:58:38.740Z,1.20
2023-03-27T17:01:13.298Z,2.97
2023-03-27T17:03:53.750Z,3.97
2023-03-27T17:12:21.367Z,2.42
2023-03-27T17:15:01.661Z,2.90
2023-03-27T17:17:32.567Z,3.70
2023-03-27T17:23:27.147Z,3.03
2023-03-27T17:26:03.825Z,4.82
2023-03-27T17:28:39.136Z,4.25
2023-03-27T17:31:07.919Z,2.15
2023-03-27T17:33:40.044Z,3.35
2023-03-27T17:36:14.588Z,2.60
2023-03-27T17:38:47.902Z,2.08
2023-03-27T17:44:18.206Z,3.60
2023-03-27T17:46:50.310Z,1.63
2023-03-27T17:49:18.223Z,2.35
2023-03-27T17:51:45.627Z,3.53
2023-03-27T17:54:18.872Z,3.35
2023-03-27T17:57:00.392Z,3.05
2023-03-27T17:59:37.144Z,1.75
2023-03-27T18:04:59.670Z,5.10
2023-03-27T18:07:34.878Z,4.05
2023-03-27T18:10:09.522Z,2.50
2023-03-27T18:18:42.124Z,5.32
2023-03-27T18:24:33.653Z,2.80
2023-03-27T18:27:03.190Z,4.13
2023-03-27T18:32:49.441Z,4.82
2023-03-27T18:35:45.787Z,4.15
2023-03-27T18:40:52.651Z,5.55
2023-03-27T18:43:22.363Z,3.42
2023-03-27T18:46:11.121Z,4.25
2023-03-27T18:48:43.234Z,4.47
2023-03-27T18:51:28.564Z,6.38
2023-03-27T18:57:01.219Z,5.85
2023-03-27T19:02:25.633Z,3.63
2023-03-27T19:08:06.898Z,5.85
2023-03-27T19:14:11.577Z,6.25
2023-03-27T19:28:53.566Z,4.55
2023-03-27T19:34:32.715Z,6.82
2023-03-27T20:18:41.043Z,6.57
2023-03-27T20:34:34.475Z,5.32
2023-03-27T20:37:44.129Z,7.47
2023-03-27T20:40:18.732Z,4.70
2023-03-27T20:46:20.874Z,4.57
2023-03-27T20:52:58.222Z,5.78
2023-03-27T22:32:06.174Z,6.38
2023-03-27T22:34:45.179Z,6.72
2023-03-27T22:37:27.039Z,8.18
2023-03-27T22:39:54.032Z,10.82
2023-03-27T22:42:26.256Z,7.35
2023-03-27T22:44:57.355Z,10.30
2023-03-27T22:47:27.794Z,6.93
2023-03-27T22:49:59.647Z,7.13
2023-03-27T22:52:32.789Z,8.70
2023-03-27T22:55:08.332Z,11.77
2023-03-27T22:57:44.559Z,8.45
2023-03-27T23:00:26.915Z,6.20
2023-03-27T23:03:08.928Z,9.48
2023-03-27T23:08:34.861Z,5.43
2023-03-27T23:11:27.719Z,9.25
2023-03-27T23:14:01.125Z,7.45
2023-03-27T23:16:44.975Z,10.00
2023-03-27T23:19:18.327Z,8.82
2023-03-27T23:21:47.560Z,6.53
2023-03-27T23:24:16.615Z,7.47
2023-03-27T23:26:51.446Z,9.98
2023-03-27T23:43:44.229Z,7.55
2023-03-27T23:46:49.844Z,11.40
2023-03-27T23:55:09.921Z,8.38
2023-03-27T23:58:01.538Z,8.88
